Time;durP1;ratioP1;P1;durP2;ratioP2;P2;SDS_P1;SDS_P2;PMS_P1;PMS_P2;Temp;Humidity;BMP_temperature;BMP_pressure;BME280_temperature;BME280_humidity;BME280_pressure;Samples;Min_cycle;Max_cycle;Signal;HPM_P1;HPM_P2
2020/12/31 00:00:10;;;;;;;6.25;4.60;;;9.20;99.90;;;;;;5035718;28;20196;-82
2020/12/31 00:02:36;;;;;;;6.78;4.53;;;9.20;99.90;;;;;;5035653;28;20196;-82
2020/12/31 00:05:03;;;;;;;7.50;5.13;;;9.20;99.90;;;;;;5035692;28;20223;-82
2020/12/31 00:07:29;;;;;;;5.60;4.85;;;9.20;99.90;;;;;;5035788;28;20279;-82
2020/12/31 00:09:56;;;;;;;7.00;4.68;;;9.10;99.90;;;;;;5035612;28;20218;-82
2020/12/31 00:12:22;;;;;;;4.88;4.38;;;9.00;99.90;;;;;;5035409;28;20196;-82
2020/12/31 00:14:48;;;;;;;5.78;4.82;;;9.00;99.90;;;;;;5035682;28;20195;-82
2020/12/31 00:17:15;;;;;;;6.03;5.43;;;8.80;99.90;;;;;;5035106;28;20704;-81
2020/12/31 00:19:41;;;;;;;4.55;4.05;;;8.80;99.90;;;;;;5035324;28;20192;-82
2020/12/31 00:22:08;;;;;;;7.00;4.63;;;8.80;99.90;;;;;;5035161;28;20195;-82
2020/12/31 00:24:34;;;;;;;4.20;3.90;;;8.90;99.90;;;;;;5035259;28;20231;-82
2020/12/31 00:27:01;;;;;;;4.70;4.20;;;8.80;99.90;;;;;;5035253;28;20203;-82
2020/12/31 00:29:27;;;;;;;6.68;4.80;;;8.70;99.90;;;;;;5035089;28;20203;-82
2020/12/31 00:31:53;;;;;;;4.50;4.10;;;8.60;99.90;;;;;;5034876;28;20651;-82
2020/12/31 00:34:20;;;;;;;6.95;4.63;;;8.50;99.90;;;;;;5035074;28;20570;-82
2020/12/31 00:36:47;;;;;;;5.63;3.97;;;8.60;99.90;;;;;;5034930;28;20200;-81
2020/12/31 00:39:13;;;;;;;5.03;4.55;;;8.60;99.90;;;;;;5034868;28;20199;-82
2020/12/31 00:41:39;;;;;;;5.93;4.60;;;8.60;99.90;;;;;;5034746;28;20573;-81
2020/12/31 00:44:06;;;;;;;5.10;4.70;;;8.60;99.90;;;;;;5034834;28;20674;-82
2020/12/31 00:46:33;;;;;;;5.50;4.55;;;8.60;99.90;;;;;;5034817;28;20216;-82
2020/12/31 00:48:59;;;;;;;6.40;5.70;;;8.60;99.90;;;;;;5034615;28;20246;-82
2020/12/31 00:51:25;;;;;;;4.95;4.28;;;8.60;99.90;;;;;;5034681;28;20204;-82
2020/12/31 00:53:51;;;;;;;5.97;5.25;;;8.50;99.90;;;;;;5034683;28;20611;-82
2020/12/31 00:56:17;;;;;;;5.68;4.80;;;8.50;99.90;;;;;;5034661;28;20203;-82
2020/12/31 00:58:44;;;;;;;6.18;5.38;;;8.50;99.90;;;;;;5034448;28;20192;-82
2020/12/31 01:01:11;;;;;;;9.55;4.93;;;8.50;99.90;;;;;;5034485;28;20234;-82
2020/12/31 01:03:37;;;;;;;6.63;5.45;;;8.50;99.90;;;;;;5034372;28;20219;-82
2020/12/31 01:06:03;;;;;;;6.13;4.75;;;8.30;99.90;;;;;;5034453;28;20654;-82
2020/12/31 01:08:29;;;;;;;8.43;5.75;;;8.30;99.90;;;;;;5034348;28;20207;-82
2020/12/31 01:10:56;;;;;;;6.20;5.00;;;8.10;99.90;;;;;;5034232;28;20199;-82
2020/12/31 01:13:22;;;;;;;10.50;6.00;;;8.10;99.90;;;;;;5034245;28;20192;-82
2020/12/31 01:15:48;;;;;;;7.50;5.50;;;8.00;99.90;;;;;;5033849;28;20545;-82
2020/12/31 01:18:15;;;;;;;6.82;5.05;;;8.10;99.90;;;;;;5033958;28;20227;-82
2020/12/31 01:20:41;;;;;;;5.63;5.03;;;8.20;99.90;;;;;;5034083;28;20195;-82
2020/12/31 01:23:07;;;;;;;5.43;4.93;;;8.10;99.90;;;;;;5034120;28;20642;-82
2020/12/31 01:25:34;;;;;;;6.05;5.07;;;8.20;99.90;;;;;;5033968;28;20223;-82
2020/12/31 01:28:00;;;;;;;10.02;5.90;;;8.10;99.90;;;;;;5033922;28;20202;-82
2020/12/31 01:30:27;;;;;;;6.15;5.38;;;8.10;99.90;;;;;;5033880;28;20222;-82
2020/12/31 01:32:53;;;;;;;6.50;5.80;;;8.00;99.90;;;;;;5033747;28;20648;-82
2020/12/31 01:35:20;;;;;;;6.40;5.80;;;8.10;99.90;;;;;;5033916;28;20548;-82
2020/12/31 01:37:47;;;;;;;5.80;5.30;;;7.90;99.90;;;;;;5033597;28;20196;-82
2020/12/31 01:40:13;;;;;;;6.55;5.50;;;8.00;99.90;;;;;;5033700;28;20670;-82
2020/12/31 01:42:40;;;;;;;6.40;5.07;;;8.00;99.90;;;;;;5033629;28;20647;-82
2020/12/31 01:45:06;;;;;;;5.75;4.80;;;8.00;99.90;;;;;;5033723;28;20233;-82
2020/12/31 01:47:33;;;;;;;8.32;5.15;;;8.00;99.90;;;;;;5033639;28;20249;-82
2020/12/31 01:49:59;;;;;;;5.32;4.80;;;7.90;99.90;;;;;;5033917;28;20199;-82
2020/12/31 01:52:30;;;;;;;6.22;5.63;;;7.90;99.90;;;;;;5033868;28;20203;-82
2020/12/31 01:54:57;;;;;;;6.30;5.00;;;7.90;99.90;;;;;;5033811;28;20207;-82
2020/12/31 01:57:24;;;;;;;5.25;4.70;;;8.00;99.90;;;;;;5033737;28;20199;-82
2020/12/31 01:59:50;;;;;;;5.40;4.90;;;7.90;99.90;;;;;;5033521;28;20677;-82
2020/12/31 02:02:16;;;;;;;5.05;4.55;;;8.10;99.90;;;;;;5033451;28;20196;-82
2020/12/31 02:04:43;;;;;;;6.20;5.30;;;8.10;99.90;;;;;;5033478;28;20236;-82
2020/12/31 02:07:10;;;;;;;5.57;5.07;;;8.00;99.90;;;;;;5033536;28;20195;-82
2020/12/31 02:09:37;;;;;;;6.03;5.45;;;7.90;99.90;;;;;;5033490;28;20195;-82
2020/12/31 02:12:04;;;;;;;6.57;5.97;;;7.80;99.90;;;;;;5033376;28;20215;-82
2020/12/31 02:14:31;;;;;;;6.18;5.57;;;7.90;99.90;;;;;;5033416;28;20559;-82
2020/12/31 02:16:58;;;;;;;5.75;4.88;;;8.00;99.90;;;;;;5033153;28;20242;-82
2020/12/31 02:19:25;;;;;;;5.05;4.50;;;8.20;99.90;;;;;;5033457;28;20539;-82
2020/12/31 02:21:53;;;;;;;5.20;4.13;;;8.20;99.90;;;;;;5032699;28;20206;-82
2020/12/31 02:24:20;;;;;;;5.55;4.65;;;8.10;99.90;;;;;;5032898;28;20223;-82
2020/12/31 02:26:48;;;;;;;6.07;5.47;;;8.00;99.90;;;;;;5033077;28;20196;-82
2020/12/31 02:29:16;;;;;;;11.00;5.40;;;8.00;99.90;;;;;;5036487;28;20191;-82
2020/12/31 02:31:45;;;;;;;5.05;4.60;;;8.00;99.90;;;;;;5037233;28;20573;-82
2020/12/31 02:34:11;;;;;;;6.63;5.18;;;8.10;99.90;;;;;;5037038;28;20227;-82
2020/12/31 02:36:38;;;;;;;6.03;5.38;;;8.10;99.90;;;;;;5037320;28;20202;-82
2020/12/31 02:39:07;;;;;;;5.63;4.97;;;8.10;99.90;;;;;;5037124;28;20195;-82
2020/12/31 02:41:34;;;;;;;7.00;5.55;;;8.20;99.90;;;;;;5036972;28;20726;-82
2020/12/31 02:44:01;;;;;;;6.88;4.97;;;8.10;99.90;;;;;;5036992;28;20253;-82
2020/12/31 02:46:27;;;;;;;8.60;5.20;;;8.00;99.90;;;;;;5036900;28;20215;-82
2020/12/31 02:48:54;;;;;;;5.68;5.18;;;8.00;99.90;;;;;;5037142;28;20199;-82
2020/12/31 02:51:21;;;;;;;6.45;5.30;;;8.00;99.90;;;;;;5036997;28;20200;-82
2020/12/31 02:53:47;;;;;;;6.53;5.75;;;8.00;99.90;;;;;;5036871;28;20195;-82
2020/12/31 02:56:16;;;;;;;6.90;5.75;;;8.20;99.90;;;;;;5037370;28;20199;-82
2020/12/31 02:58:42;;;;;;;9.13;6.15;;;8.30;99.90;;;;;;5036773;28;20199;-82
2020/12/31 03:01:09;;;;;;;4.72;4.32;;;8.20;99.90;;;;;;5036728;28;20661;-82
2020/12/31 03:03:35;;;;;;;6.10;5.50;;;8.20;99.90;;;;;;5036963;28;20223;-82
2020/12/31 03:06:02;;;;;;;5.60;5.03;;;8.10;99.90;;;;;;5036678;28;20659;-82
2020/12/31 03:08:29;;;;;;;6.22;4.93;;;8.10;99.90;;;;;;5036733;28;20681;-82
2020/12/31 03:10:56;;;;;;;5.65;4.82;;;8.00;99.90;;;;;;5036605;28;20665;-82
2020/12/31 03:13:24;;;;;;;9.38;6.15;;;8.10;99.90;;;;;;5036446;28;20238;-82
2020/12/31 03:15:51;;;;;;;5.93;5.20;;;7.90;99.90;;;;;;5036440;28;20209;-81
2020/12/31 03:18:17;;;;;;;8.13;5.93;;;7.80;99.90;;;;;;5036396;28;20215;-82
2020/12/31 03:20:44;;;;;;;5.82;5.20;;;7.90;99.90;;;;;;5036600;28;20200;-82
2020/12/31 03:23:11;;;;;;;5.35;4.53;;;8.10;99.90;;;;;;5036411;28;20226;-82
2020/12/31 03:25:38;;;;;;;6.32;5.75;;;7.90;99.90;;;;;;5036322;28;20223;-82
2020/12/31 03:28:04;;;;;;;6.80;5.72;;;8.00;99.90;;;;;;5036428;28;20200;-82
2020/12/31 03:30:32;;;;;;;5.90;5.25;;;8.10;99.90;;;;;;5036348;28;20208;-82
2020/12/31 03:32:58;;;;;;;5.43;4.90;;;8.10;99.90;;;;;;5035991;28;20223;-82
2020/12/31 03:35:24;;;;;;;7.82;4.70;;;8.10;99.90;;;;;;5036007;28;20204;-82
2020/12/31 03:37:51;;;;;;;6.88;5.20;;;8.20;99.90;;;;;;5036047;28;20200;-82
2020/12/31 03:40:18;;;;;;;4.90;4.40;;;8.10;99.90;;;;;;5035621;28;20203;-82
2020/12/31 03:42:44;;;;;;;6.03;4.93;;;8.10;99.90;;;;;;5035953;28;20227;-82
2020/12/31 03:45:11;;;;;;;6.07;5.47;;;8.00;99.90;;;;;;5035761;28;20227;-82
2020/12/31 03:47:38;;;;;;;5.60;5.10;;;8.00;99.90;;;;;;5035698;28;20219;-82
2020/12/31 03:50:05;;;;;;;7.38;6.20;;;7.90;99.90;;;;;;5035947;28;20200;-81
2020/12/31 03:52:31;;;;;;;5.40;3.85;;;7.80;99.90;;;;;;5035710;28;20207;-82
2020/12/31 03:54:58;;;;;;;6.18;5.10;;;7.80;99.90;;;;;;5035737;28;20203;-81
2020/12/31 03:57:24;;;;;;;6.03;5.28;;;7.90;99.90;;;;;;5036015;28;20191;-81
2020/12/31 03:59:50;;;;;;;5.80;5.22;;;8.00;99.90;;;;;;5035486;28;20551;-82
2020/12/31 04:02:16;;;;;;;5.63;5.03;;;7.90;99.90;;;;;;5035686;28;20203;-82
2020/12/31 04:04:44;;;;;;;5.95;5.40;;;7.90;99.90;;;;;;5035512;28;20694;-82
2020/12/31 04:07:10;;;;;;;6.75;4.00;;;7.80;99.90;;;;;;5035665;28;20203;-82
2020/12/31 04:09:36;;;;;;;5.32;4.80;;;7.80;99.90;;;;;;5035712;28;20192;-82
2020/12/31 04:12:03;;;;;;;4.55;4.20;;;7.80;99.90;;;;;;5035502;28;20196;-82
2020/12/31 04:14:29;;;;;;;4.85;4.35;;;7.80;99.90;;;;;;5035449;28;20196;-81
2020/12/31 04:16:56;;;;;;;5.00;4.60;;;7.90;99.90;;;;;;5035276;28;20215;-82
2020/12/31 04:19:22;;;;;;;5.07;4.47;;;7.80;99.90;;;;;;5035368;28;20322;-82
2020/12/31 04:21:49;;;;;;;7.38;5.45;;;7.70;99.90;;;;;;5035228;28;20207;-82
2020/12/31 04:24:15;;;;;;;4.68;4.22;;;7.80;99.90;;;;;;5035136;28;20262;-82
2020/12/31 04:26:48;;;;;;;5.10;3.97;;;7.90;99.90;;;;;;5034809;28;20655;-82
2020/12/31 04:29:15;;;;;;;5.10;4.70;;;7.90;99.90;;;;;;5034707;28;20200;-82
2020/12/31 04:31:41;;;;;;;4.97;4.50;;;7.90;99.90;;;;;;5035003;28;20200;-82
2020/12/31 04:34:07;;;;;;;6.80;4.63;;;7.80;99.90;;;;;;5034836;28;20289;-82
2020/12/31 04:36:34;;;;;;;5.05;4.38;;;7.80;99.90;;;;;;5034948;28;20207;-82
2020/12/31 04:39:01;;;;;;;5.35;4.85;;;7.80;99.90;;;;;;5035024;28;20270;-82
2020/12/31 04:41:28;;;;;;;6.25;4.60;;;7.80;99.90;;;;;;5034873;28;20253;-82
2020/12/31 04:43:55;;;;;;;6.55;4.78;;;7.90;99.90;;;;;;5034801;28;20235;-82
2020/12/31 04:46:22;;;;;;;5.43;3.92;;;8.00;99.90;;;;;;5034654;28;20270;-82
2020/12/31 04:48:56;;;;;;;6.32;5.63;;;7.80;99.90;;;;;;5034897;28;20200;-82
2020/12/31 04:51:25;;;;;;;4.25;3.85;;;7.90;99.90;;;;;;5034103;28;20199;-82
2020/12/31 04:53:53;;;;;;;5.00;4.47;;;8.00;99.90;;;;;;5034801;28;20222;-82
2020/12/31 04:56:24;;;;;;;4.80;4.40;;;7.90;99.90;;;;;;5034645;28;20651;-82
2020/12/31 04:58:50;;;;;;;5.28;4.68;;;7.90;99.90;;;;;;5034487;28;20265;-82
2020/12/31 05:01:17;;;;;;;5.05;4.55;;;8.00;99.90;;;;;;5034723;28;20195;-82
2020/12/31 05:03:43;;;;;;;5.32;4.82;;;8.00;99.90;;;;;;5034430;28;20197;-82
2020/12/31 05:06:16;;;;;;;5.55;4.30;;;8.00;99.90;;;;;;5033624;28;20658;-82
2020/12/31 05:08:44;;;;;;;6.93;4.72;;;8.10;99.90;;;;;;5034401;28;20200;-81
2020/12/31 05:11:11;;;;;;;6.68;3.88;;;8.10;99.90;;;;;;5034292;28;20203;-82
2020/12/31 05:13:45;;;;;;;4.65;4.15;;;8.30;99.90;;;;;;5034117;28;20223;-82
2020/12/31 05:16:12;;;;;;;5.50;5.10;;;8.30;99.90;;;;;;5034164;28;20701;-82
2020/12/31 05:18:38;;;;;;;4.60;3.90;;;8.30;99.90;;;;;;5034049;28;20252;-82
2020/12/31 05:21:17;;;;;;;4.32;3.92;;;8.10;99.90;;;;;;5034050;28;20207;-82
2020/12/31 05:23:46;;;;;;;4.82;4.43;;;8.30;99.90;;;;;;5033995;28;20257;-82
2020/12/31 05:26:28;;;;;;;4.40;3.92;;;8.20;99.90;;;;;;5033982;28;20195;-82
2020/12/31 05:28:55;;;;;;;5.40;4.63;;;8.20;99.90;;;;;;5034195;28;20547;-82
2020/12/31 05:31:22;;;;;;;4.80;4.30;;;8.20;99.90;;;;;;5033918;28;20207;-82
2020/12/31 05:33:48;;;;;;;4.50;3.85;;;8.30;99.90;;;;;;5033866;28;20227;-82
2020/12/31 05:36:18;;;;;;;5.03;4.53;;;8.30;99.90;;;;;;5033792;28;20254;-81
2020/12/31 05:38:46;;;;;;;4.55;4.13;;;8.20;99.90;;;;;;5033685;28;20290;-82
2020/12/31 05:41:13;;;;;;;4.18;3.80;;;8.30;99.90;;;;;;5033649;28;20540;-82
2020/12/31 05:43:41;;;;;;;5.32;4.68;;;8.30;99.90;;;;;;5033782;28;20559;-81
2020/12/31 05:46:10;;;;;;;4.60;4.20;;;8.30;99.90;;;;;;5033684;28;20610;-81
2020/12/31 05:48:36;;;;;;;4.07;3.75;;;8.30;99.90;;;;;;5033729;28;20192;-81
2020/12/31 05:51:22;;;;;;;4.20;3.85;;;8.40;99.90;;;;;;5033775;28;20203;-82
2020/12/31 05:53:49;;;;;;;4.82;4.38;;;8.40;99.90;;;;;;5033715;28;20195;-81
2020/12/31 05:56:17;;;;;;;5.25;4.18;;;8.40;99.90;;;;;;5033741;28;20195;-81
2020/12/31 05:58:45;;;;;;;4.15;3.85;;;8.40;99.90;;;;;;5033396;28;20302;-81
2020/12/31 06:01:14;;;;;;;3.70;3.40;;;8.40;99.90;;;;;;5033443;28;20212;-81
2020/12/31 06:03:47;;;;;;;4.88;4.47;;;8.40;99.90;;;;;;5033169;28;20213;-81
2020/12/31 06:06:18;;;;;;;4.50;4.10;;;8.40;99.90;;;;;;5033470;28;20196;-81
2020/12/31 06:08:58;;;;;;;4.18;3.80;;;8.50;99.90;;;;;;5033508;28;20277;-81
2020/12/31 06:11:32;;;;;;;4.80;3.80;;;8.40;99.90;;;;;;5033393;28;20196;-81
2020/12/31 06:13:58;;;;;;;4.15;3.75;;;8.40;99.90;;;;;;5033594;28;20261;-81
2020/12/31 06:16:28;;;;;;;4.88;4.00;;;8.40;99.90;;;;;;5033218;28;20216;-81
2020/12/31 06:19:02;;;;;;;5.75;3.80;;;8.40;99.90;;;;;;5033178;28;20223;-81
2020/12/31 06:21:39;;;;;;;4.20;3.83;;;8.30;99.90;;;;;;5033564;28;20207;-81
2020/12/31 06:24:11;;;;;;;4.25;3.85;;;8.30;99.90;;;;;;5033296;28;20293;-81
2020/12/31 06:26:40;;;;;;;4.57;4.18;;;8.40;99.90;;;;;;5033208;28;20222;-81
2020/12/31 06:29:06;;;;;;;5.60;3.70;;;8.30;99.90;;;;;;5033253;28;20651;-81
2020/12/31 06:31:34;;;;;;;4.40;3.95;;;8.30;99.90;;;;;;5033349;28;20207;-81
2020/12/31 06:34:00;;;;;;;4.57;3.97;;;8.30;99.90;;;;;;5032525;28;20230;-81
2020/12/31 06:36:33;;;;;;;3.83;3.53;;;8.40;99.90;;;;;;5033254;28;20242;-81
2020/12/31 06:39:00;;;;;;;5.15;4.00;;;8.40;99.90;;;;;;5033020;28;20202;-81
2020/12/31 06:41:41;;;;;;;3.65;3.35;;;8.40;99.90;;;;;;5032976;28;20195;-81
2020/12/31 06:44:09;;;;;;;4.30;3.90;;;8.50;99.90;;;;;;5033145;28;20305;-81
2020/12/31 06:46:41;;;;;;;5.40;3.80;;;8.40;99.90;;;;;;5032938;28;20212;-82
2020/12/31 06:49:08;;;;;;;3.88;3.55;;;8.50;99.90;;;;;;5033021;28;20292;-81
2020/12/31 06:51:35;;;;;;;4.45;4.05;;;8.50;99.90;;;;;;5033047;28;20650;-81
2020/12/31 06:54:01;;;;;;;4.88;3.65;;;8.50;99.90;;;;;;5033000;28;20254;-82
2020/12/31 06:56:41;;;;;;;3.80;3.50;;;8.50;99.90;;;;;;5033098;28;20203;-82
2020/12/31 06:59:29;;;;;;;4.78;4.32;;;8.60;99.90;;;;;;5033072;28;20203;-81
2020/12/31 07:01:57;;;;;;;5.28;3.90;;;8.50;99.90;;;;;;5032900;28;20207;-81
2020/12/31 07:04:27;;;;;;;4.45;4.05;;;8.50;99.90;;;;;;5033107;28;20255;-81
2020/12/31 07:06:53;;;;;;;3.97;3.53;;;8.50;99.90;;;;;;5033128;28;20218;-81
2020/12/31 07:09:31;;;;;;;3.97;3.67;;;8.40;99.90;;;;;;5032917;28;20250;-81
2020/12/31 07:11:59;;;;;;;5.15;4.20;;;8.40;99.90;;;;;;5032647;28;20258;-81
2020/12/31 07:14:27;;;;;;;4.03;3.72;;;8.50;99.90;;;;;;5034302;28;20218;-81
2020/12/31 07:17:05;;;;;;;4.85;4.05;;;8.50;99.90;;;;;;5036066;28;20264;-81
2020/12/31 07:19:40;;;;;;;4.10;3.55;;;8.50;99.90;;;;;;5036399;28;20265;-81
2020/12/31 07:22:20;;;;;;;4.72;3.83;;;8.50;99.90;;;;;;5036553;28;20203;-81
2020/12/31 07:24:48;;;;;;;3.97;3.58;;;8.60;99.90;;;;;;5036362;28;20254;-81
2020/12/31 07:27:24;;;;;;;4.70;3.22;;;8.60;99.90;;;;;;5036305;28;20253;-81
2020/12/31 07:30:09;;;;;;;3.60;3.30;;;8.40;99.90;;;;;;5036346;28;20567;-82
2020/12/31 07:32:54;;;;;;;4.25;3.85;;;8.50;99.90;;;;;;5035997;28;20282;-81
2020/12/31 07:35:25;;;;;;;3.50;3.20;;;8.50;99.90;;;;;;5035989;28;20196;-81
2020/12/31 07:37:53;;;;;;;3.05;2.75;;;8.40;99.90;;;;;;5036458;28;20196;-81
2020/12/31 07:40:30;;;;;;;3.47;3.17;;;8.50;99.90;;;;;;5035896;28;20530;-81
2020/12/31 07:42:58;;;;;;;4.53;2.58;;;8.50;99.90;;;;;;5035935;28;20195;-82
2020/12/31 07:45:25;;;;;;;3.83;3.10;;;8.50;99.90;;;;;;5035676;28;20223;-81
2020/12/31 07:47:52;;;;;;;2.90;2.60;;;8.50;99.90;;;;;;5035699;28;20710;-81
2020/12/31 07:50:19;;;;;;;2.78;2.55;;;8.30;99.90;;;;;;5036037;28;20199;-81
2020/12/31 07:52:45;;;;;;;2.30;2.10;;;8.40;99.90;;;;;;5035788;28;20204;-81
2020/12/31 07:55:12;;;;;;;2.20;2.00;;;8.40;99.90;;;;;;5035958;28;20681;-81
2020/12/31 07:57:38;;;;;;;2.80;2.60;;;8.30;99.90;;;;;;5035984;28;20196;-81
2020/12/31 08:00:05;;;;;;;2.92;2.72;;;8.30;99.90;;;;;;5035783;28;20534;-81
2020/12/31 08:02:32;;;;;;;3.05;2.80;;;8.40;99.90;;;;;;5035556;28;20227;-81
2020/12/31 08:04:59;;;;;;;2.53;2.30;;;8.40;99.90;;;;;;5035313;28;20270;-81
2020/12/31 08:07:25;;;;;;;2.13;1.92;;;8.30;99.90;;;;;;5035658;28;20650;-81
2020/12/31 08:09:52;;;;;;;2.47;2.28;;;8.30;99.90;;;;;;5035670;28;20206;-82
2020/12/31 08:12:18;;;;;;;3.08;2.50;;;8.40;99.90;;;;;;5035540;28;20203;-81
2020/12/31 08:14:45;;;;;;;2.47;2.15;;;8.30;99.90;;;;;;5035566;28;20212;-81
2020/12/31 08:17:12;;;;;;;2.22;2.03;;;8.20;99.90;;;;;;5035317;28;20222;-82
2020/12/31 08:19:39;;;;;;;2.40;2.20;;;8.10;99.90;;;;;;5035605;28;20214;-81
2020/12/31 08:22:14;;;;;;;2.03;1.90;;;8.10;99.90;;;;;;5034862;28;20235;-81
2020/12/31 08:24:48;;;;;;;2.63;2.42;;;8.00;99.90;;;;;;5035125;28;20225;-82
2020/12/31 08:27:18;;;;;;;2.90;2.35;;;7.90;99.90;;;;;;5034493;28;20200;-81
2020/12/31 08:29:46;;;;;;;2.60;2.40;;;8.00;99.90;;;;;;5035405;28;20556;-80
2020/12/31 08:32:23;;;;;;;2.22;2.03;;;8.00;99.90;;;;;;5034735;28;20258;-80
2020/12/31 08:34:53;;;;;;;2.05;1.95;;;8.00;99.90;;;;;;5035076;28;20199;-80
2020/12/31 08:37:22;;;;;;;2.38;2.17;;;8.00;99.90;;;;;;5034852;28;20200;-80
2020/12/31 08:39:50;;;;;;;2.10;1.90;;;8.00;99.90;;;;;;5034907;28;20220;-80
2020/12/31 08:42:19;;;;;;;2.47;2.28;;;8.10;99.90;;;;;;5034770;28;20286;-80
2020/12/31 08:44:53;;;;;;;2.00;1.83;;;8.10;99.90;;;;;;5034911;28;20219;-80
2020/12/31 08:47:21;;;;;;;2.72;2.50;;;8.10;99.90;;;;;;5024051;28;20265;-80
2020/12/31 08:49:52;;;;;;;2.25;1.98;;;8.00;99.90;;;;;;5014652;28;20199;-80
2020/12/31 08:52:18;;;;;;;1.73;1.63;;;7.90;99.90;;;;;;5015167;28;20200;-80
2020/12/31 08:54:45;;;;;;;2.30;2.00;;;7.90;99.90;;;;;;5014903;28;20203;-81
2020/12/31 08:57:16;;;;;;;2.00;1.75;;;7.90;99.90;;;;;;5014982;28;20197;-81
2020/12/31 08:59:42;;;;;;;2.17;2.00;;;8.00;99.90;;;;;;5014922;28;20204;-81
2020/12/31 09:02:12;;;;;;;2.45;2.22;;;8.10;99.90;;;;;;5014654;28;20203;-81
2020/12/31 09:04:38;;;;;;;2.60;2.40;;;8.10;99.90;;;;;;5015086;28;20223;-81
2020/12/31 09:07:10;;;;;;;4.38;1.95;;;8.20;99.90;;;;;;5014758;28;20197;-81
2020/12/31 09:09:37;;;;;;;3.63;2.60;;;8.30;99.90;;;;;;5014843;28;20675;-81
2020/12/31 09:12:08;;;;;;;2.65;2.45;;;8.30;99.90;;;;;;5014480;28;20568;-81
2020/12/31 09:14:35;;;;;;;2.60;2.00;;;8.20;99.90;;;;;;5014456;28;20234;-81
2020/12/31 09:17:19;;;;;;;2.33;1.90;;;8.20;99.90;;;;;;5014245;28;20216;-81
2020/12/31 09:19:50;;;;;;;2.45;2.25;;;8.40;99.90;;;;;;5014210;28;20200;-81
2020/12/31 09:22:16;;;;;;;2.50;2.10;;;8.40;99.90;;;;;;5024857;28;20191;-80
2020/12/31 09:24:42;;;;;;;2.10;1.92;;;8.30;99.90;;;;;;5015896;28;20220;-80
2020/12/31 09:27:09;;;;;;;2.63;2.42;;;8.20;99.90;;;;;;5023052;28;20196;-81
2020/12/31 09:29:36;;;;;;;2.92;2.70;;;8.20;99.90;;;;;;5033883;28;20192;-81
2020/12/31 09:32:02;;;;;;;4.38;2.30;;;8.00;99.90;;;;;;5033643;28;20666;-81
2020/12/31 09:34:28;;;;;;;2.92;2.72;;;8.10;99.90;;;;;;5034048;28;20580;-81
2020/12/31 09:36:59;;;;;;;3.58;3.28;;;8.10;99.90;;;;;;5033484;28;20199;-81
2020/12/31 09:39:26;;;;;;;2.75;2.55;;;8.20;99.90;;;;;;5033735;28;20191;-81
2020/12/31 09:41:52;;;;;;;2.70;2.50;;;8.40;99.90;;;;;;5033678;28;20211;-80
2020/12/31 09:44:20;;;;;;;2.45;2.25;;;8.60;99.90;;;;;;5033718;28;20223;-81
2020/12/31 09:46:46;;;;;;;3.45;3.15;;;8.50;99.90;;;;;;5033522;28;20227;-81
2020/12/31 09:49:12;;;;;;;3.60;3.30;;;8.60;99.90;;;;;;5034061;28;20207;-81
2020/12/31 09:51:38;;;;;;;3.45;3.15;;;8.50;99.90;;;;;;5033438;28;20245;-81
2020/12/31 09:54:07;;;;;;;2.75;2.55;;;8.60;99.90;;;;;;5033554;28;20222;-81
2020/12/31 09:56:33;;;;;;;3.13;2.90;;;8.60;99.90;;;;;;5033662;28;20646;-80
2020/12/31 09:59:00;;;;;;;2.95;2.75;;;8.70;99.90;;;;;;5033943;28;20204;-81
2020/12/31 10:01:27;;;;;;;2.80;2.60;;;8.60;99.90;;;;;;5033243;28;20199;-81
2020/12/31 10:03:53;;;;;;;5.32;2.80;;;8.70;99.90;;;;;;5033423;28;20203;-80
2020/12/31 10:06:20;;;;;;;3.92;3.63;;;8.70;99.90;;;;;;5033246;28;20223;-79
2020/12/31 10:08:47;;;;;;;3.08;2.80;;;8.80;99.90;;;;;;5033323;28;20195;-79
2020/12/31 10:11:13;;;;;;;3.28;2.97;;;8.80;99.90;;;;;;5032871;28;20290;-79
2020/12/31 10:13:39;;;;;;;3.20;2.75;;;8.90;99.90;;;;;;5032155;28;20729;-80
2020/12/31 10:16:05;;;;;;;6.78;3.05;;;9.00;99.90;;;;;;5033291;28;20227;-80
2020/12/31 10:18:32;;;;;;;3.80;3.45;;;9.00;99.90;;;;;;5033283;28;20202;-80
2020/12/31 10:20:59;;;;;;;3.80;3.50;;;9.00;99.90;;;;;;5033316;28;20192;-79
2020/12/31 10:23:25;;;;;;;3.47;2.92;;;9.00;99.90;;;;;;5033136;28;20234;-79
2020/12/31 10:25:52;;;;;;;3.83;3.50;;;9.10;99.90;;;;;;5033312;28;20232;-80
2020/12/31 10:28:19;;;;;;;4.05;3.05;;;9.10;99.90;;;;;;5033266;28;20229;-80
2020/12/31 10:30:45;;;;;;;3.35;3.05;;;9.20;99.90;;;;;;5033244;28;20275;-80
2020/12/31 10:33:12;;;;;;;2.67;2.47;;;9.00;99.90;;;;;;5032845;28;20223;-79
2020/12/31 10:35:39;;;;;;;3.60;3.40;;;9.00;99.90;;;;;;5032999;28;20275;-79
2020/12/31 10:38:05;;;;;;;3.33;3.03;;;8.90;99.90;;;;;;5033029;28;20199;-80
2020/12/31 10:40:31;;;;;;;3.95;3.45;;;9.00;99.90;;;;;;5033178;28;20199;-79
2020/12/31 10:42:57;;;;;;;3.85;3.55;;;9.00;99.90;;;;;;5032145;28;20192;-79
2020/12/31 10:45:24;;;;;;;3.00;2.80;;;9.00;99.90;;;;;;5032751;28;20769;-80
2020/12/31 10:47:50;;;;;;;2.63;2.42;;;9.00;99.90;;;;;;5033002;28;20202;-80
2020/12/31 10:50:16;;;;;;;3.80;3.50;;;9.10;99.90;;;;;;5036081;28;20192;-79
2020/12/31 10:52:43;;;;;;;2.80;2.60;;;9.10;99.90;;;;;;5036453;28;20192;-79
2020/12/31 10:55:10;;;;;;;3.13;2.83;;;9.10;99.90;;;;;;5036757;28;20253;-79
2020/12/31 10:57:36;;;;;;;3.03;2.72;;;9.10;99.90;;;;;;5036130;28;20206;-80
2020/12/31 11:00:03;;;;;;;3.38;2.72;;;9.20;99.90;;;;;;5029661;28;20192;-79
2020/12/31 11:02:29;;;;;;;3.30;2.58;;;9.10;99.90;;;;;;5045333;28;20198;-79
2020/12/31 11:04:55;;;;;;;2.60;2.40;;;9.00;99.90;;;;;;5023687;28;20226;-79
2020/12/31 11:07:21;;;;;;;3.50;2.75;;;9.00;99.90;;;;;;5048618;28;20533;-79
2020/12/31 11:09:48;;;;;;;5.05;3.30;;;9.00;99.90;;;;;;5052020;28;20198;-79
2020/12/31 11:12:15;;;;;;;2.97;2.55;;;9.10;99.90;;;;;;5041222;28;20188;-79
2020/12/31 11:14:41;;;;;;;2.70;2.50;;;9.30;99.90;;;;;;5047748;28;20199;-80
2020/12/31 11:17:07;;;;;;;2.83;2.63;;;9.30;99.90;;;;;;5050991;28;20211;-79
2020/12/31 11:19:34;;;;;;;2.90;2.70;;;9.30;99.90;;;;;;5045218;28;20191;-79
2020/12/31 11:22:00;;;;;;;6.22;4.35;;;9.30;99.90;;;;;;5044247;28;20218;-80
2020/12/31 11:24:26;;;;;;;9.18;5.13;;;9.30;99.90;;;;;;5038392;28;20565;-80
2020/12/31 11:26:53;;;;;;;4.75;3.58;;;9.30;99.90;;;;;;5052842;28;20183;-80
2020/12/31 11:29:19;;;;;;;4.85;4.03;;;9.30;99.90;;;;;;5043010;28;20229;-80
2020/12/31 11:31:46;;;;;;;4.00;3.50;;;9.30;99.90;;;;;;5045740;28;20192;-79
2020/12/31 11:34:12;;;;;;;3.20;2.75;;;9.40;99.90;;;;;;5049229;28;20254;-80
2020/12/31 11:36:38;;;;;;;4.82;3.92;;;9.30;99.90;;;;;;5037457;28;20191;-80
2020/12/31 11:39:05;;;;;;;8.73;4.80;;;9.40;99.90;;;;;;5028682;28;20197;-80
2020/12/31 11:41:31;;;;;;;2.83;2.63;;;9.30;99.90;;;;;;5032744;28;20201;-80
2020/12/31 11:43:58;;;;;;;6.75;2.42;;;9.20;99.90;;;;;;5055822;28;20556;-80
2020/12/31 11:46:24;;;;;;;6.68;3.35;;;8.90;99.90;;;;;;5040010;28;20219;-80
2020/12/31 11:48:50;;;;;;;4.22;3.80;;;9.00;99.90;;;;;;5048435;28;20192;-80
2020/12/31 11:51:16;;;;;;;12.05;6.28;;;8.90;99.90;;;;;;5035917;28;20196;-82
2020/12/31 11:53:43;;;;;;;7.60;5.53;;;9.10;99.90;;;;;;5017101;28;20676;-83
2020/12/31 11:56:09;;;;;;;4.25;3.85;;;9.00;99.90;;;;;;5035559;28;20588;-81
2020/12/31 11:58:36;;;;;;;2.30;1.85;;;9.00;99.90;;;;;;5035994;28;20201;-85
2020/12/31 12:01:03;;;;;;;2.50;2.20;;;9.00;99.90;;;;;;5035613;28;20266;-79
2020/12/31 12:03:29;;;;;;;2.35;1.98;;;9.00;99.90;;;;;;5035687;28;20200;-81
2020/12/31 12:05:56;;;;;;;2.60;2.40;;;9.00;99.90;;;;;;5035808;28;20215;-83
2020/12/31 12:08:27;;;;;;;3.05;2.85;;;8.90;99.90;;;;;;5035710;28;20199;-83
2020/12/31 12:10:55;;;;;;;2.92;2.63;;;8.80;99.90;;;;;;5035711;28;20199;-82
2020/12/31 12:13:21;;;;;;;2.55;2.33;;;8.70;99.90;;;;;;5035702;28;20200;-82
2020/12/31 12:15:47;;;;;;;3.10;2.50;;;8.60;99.90;;;;;;5035392;28;20219;-83
2020/12/31 12:18:14;;;;;;;2.72;2.53;;;8.60;99.90;;;;;;5035616;28;20206;-84
2020/12/31 12:20:40;;;;;;;3.78;2.78;;;8.70;99.90;;;;;;5035280;28;20201;-80
2020/12/31 12:23:07;;;;;;;1.88;1.77;;;8.90;99.90;;;;;;5035602;28;20191;-83
2020/12/31 12:25:33;;;;;;;2.03;1.83;;;8.80;99.90;;;;;;5035389;28;20321;-83
2020/12/31 12:27:59;;;;;;;1.70;1.60;;;8.90;99.90;;;;;;5035741;28;20253;-80
2020/12/31 12:30:25;;;;;;;1.98;1.77;;;9.00;99.90;;;;;;5035533;28;20664;-84
2020/12/31 12:32:52;;;;;;;1.73;1.63;;;9.00;99.90;;;;;;5035037;28;20622;-84
2020/12/31 12:35:19;;;;;;;1.52;1.42;;;9.10;99.90;;;;;;5035081;28;20203;-85
2020/12/31 12:37:45;;;;;;;2.17;1.98;;;9.10;99.90;;;;;;5035186;28;20203;-85
2020/12/31 12:40:12;;;;;;;2.60;2.40;;;9.00;99.90;;;;;;5035719;28;20203;-83
2020/12/31 12:42:38;;;;;;;2.13;2.03;;;9.10;99.90;;;;;;5035135;28;20648;-83
2020/12/31 12:45:06;;;;;;;2.10;1.90;;;9.20;99.90;;;;;;5035084;28;20223;-85
2020/12/31 12:47:33;;;;;;;1.90;1.80;;;9.20;99.90;;;;;;5035070;28;20202;-84
2020/12/31 12:50:00;;;;;;;2.30;2.08;;;9.20;99.90;;;;;;5034868;28;20195;-84
2020/12/31 12:52:27;;;;;;;2.40;2.20;;;9.20;99.90;;;;;;5034833;28;20196;-84
2020/12/31 12:54:55;;;;;;;3.08;2.30;;;9.30;99.90;;;;;;5018780;28;20199;-86
2020/12/31 12:57:22;;;;;;;3.28;2.03;;;9.30;99.90;;;;;;5032488;28;20195;-91
2020/12/31 12:59:48;;;;;;;2.05;1.95;;;9.30;99.90;;;;;;5034670;28;20202;-83